Time;durP1;ratioP1;P1;durP2;ratioP2;P2;SDS_P1;SDS_P2;PMS_P1;PMS_P2;Temp;Humidity;BMP_temperature;BMP_pressure;BME280_temperature;BME280_humidity;BME280_pressure;Samples;Min_cycle;Max_cycle;Signal;HPM_P1;HPM_P2
2021/11/18 00:00:28;;;;;;;8.2;6.6;;;;;;;5.96;92.18066;947.3103;;;;
2021/11/18 00:03:08;;;;;;;9.3;7;;;;;;;5.98;91.67676;947.2905;;;;
2021/11/18 00:05:40;;;;;;;8.4;6.6;;;;;;;5.97;91.92285;947.3003;;;;
2021/11/18 00:08:47;;;;;;;7.9;6.3;;;;;;;5.9;92.02246;947.2614;;;;
2021/11/18 00:11:16;;;;;;;8.5;6.4;;;;;;;5.8;92.23828;947.248;;;;
2021/11/18 00:13:41;;;;;;;7.9;6.2;;;;;;;5.9;91.95508;947.2558;;;;
2021/11/18 00:16:06;;;;;;;7.2;6.1;;;;;;;5.85;91.59277;947.2685;;;;
2021/11/18 00:18:34;;;;;;;7;5.9;;;;;;;5.85;91.80762;947.3103;;;;
2021/11/18 00:20:59;;;;;;;7.3;5.3;;;;;;;5.96;91.28809;947.3925;;;;
2021/11/18 00:23:25;;;;;;;5.9;5.1;;;;;;;5.96;90.75781;947.2748;;;;
2021/11/18 00:25:50;;;;;;;6.9;5.4;;;;;;;6.03;90.3457;947.3374;;;;
2021/11/18 00:28:15;;;;;;;6.6;5.6;;;;;;;6.08;90.06152;947.3306;;;;
2021/11/18 00:30:40;;;;;;;6.8;5.5;;;;;;;6;89.70508;947.3691;;;;
2021/11/18 00:33:05;;;;;;;6.5;5.5;;;;;;;5.84;90.47461;947.2941;;;;
2021/11/18 00:35:32;;;;;;;6.9;5.2;;;;;;;5.91;90.78418;947.3741;;;;
2021/11/18 00:37:57;;;;;;;7.7;6;;;;;;;5.99;90.38086;947.3734;;;;
2021/11/18 00:40:24;;;;;;;7;5.6;;;;;;;6.01;90.00977;947.3747;;;;
2021/11/18 00:42:49;;;;;;;7.5;5.2;;;;;;;5.94;90.00977;947.339;;;;
2021/11/18 00:45:14;;;;;;;5.5;5;;;;;;;6.04;89.86133;947.3464;;;;
2021/11/18 00:47:40;;;;;;;6.4;5.6;;;;;;;5.93;90.36816;947.3716;;;;
2021/11/18 00:50:05;;;;;;;7.1;5.8;;;;;;;6.05;90.00879;947.3925;;;;
2021/11/18 00:52:30;;;;;;;5.8;5.2;;;;;;;6.07;89.4043;947.3176;;;;
2021/11/18 00:54:56;;;;;;;6.3;5.7;;;;;;;6.13;89.09863;947.3881;;;;
2021/11/18 00:57:21;;;;;;;6.7;5.3;;;;;;;6.09;88.75391;947.4158;;;;
2021/11/18 00:59:47;;;;;;;6.7;5.7;;;;;;;5.8;89.84375;947.4937;;;;
2021/11/18 01:02:12;;;;;;;7;5.9;;;;;;;5.7;91.08594;947.4474;;;;
2021/11/18 01:04:37;;;;;;;7.4;5.8;;;;;;;5.64;91.40137;947.4031;;;;
2021/11/18 01:07:03;;;;;;;7.7;6.2;;;;;;;5.68;91.80664;947.3946;;;;
2021/11/18 01:09:28;;;;;;;7.8;6.2;;;;;;;5.85;91.18652;947.3796;;;;
2021/11/18 01:11:53;;;;;;;7.5;5.4;;;;;;;5.86;90.77051;947.3406;;;;
2021/11/18 01:14:18;;;;;;;8.1;6.5;;;;;;;5.9;90.70117;947.3484;;;;
2021/11/18 01:16:48;;;;;;;8.3;6.1;;;;;;;5.93;90.09863;947.3986;;;;
2021/11/18 01:19:17;;;;;;;7.3;6.1;;;;;;;5.98;89.87109;947.4211;;;;
2021/11/18 01:21:46;;;;;;;7.8;6;;;;;;;6;89.68262;947.4481;;;;
2021/11/18 01:24:11;;;;;;;7.2;6.4;;;;;;;5.88;90.05176;947.4363;;;;
2021/11/18 01:26:43;;;;;;;8;6.2;;;;;;;5.96;89.94434;947.4108;;;;
2021/11/18 01:29:08;;;;;;;6.8;6.1;;;;;;;6.08;89.56445;947.4344;;;;
2021/11/18 01:31:39;;;;;;;7;5.7;;;;;;;6.01;89.62988;947.4172;;;;
2021/11/18 01:34:08;;;;;;;8.1;6;;;;;;;6.03;89.53027;947.3647;;;;
2021/11/18 01:36:33;;;;;;;7.9;6;;;;;;;6.07;89.21191;947.3752;;;;
2021/11/18 01:38:58;;;;;;;7.8;6.5;;;;;;;5.93;90.0293;947.3351;;;;
2021/11/18 01:41:26;;;;;;;7.4;6.2;;;;;;;5.95;90.56348;947.3091;;;;
2021/11/18 01:43:51;;;;;;;8.5;6.1;;;;;;;5.93;90.37891;947.2838;;;;
2021/11/18 01:46:16;;;;;;;7.4;6.3;;;;;;;5.79;90.68945;947.2625;;;;
2021/11/18 01:48:42;;;;;;;8.8;6.8;;;;;;;5.77;90.875;947.274;;;;
2021/11/18 01:51:08;;;;;;;7.1;5.8;;;;;;;5.87;90.08301;947.224;;;;
2021/11/18 01:53:36;;;;;;;7.4;6.5;;;;;;;5.89;90.16797;947.2977;;;;
2021/11/18 01:56:01;;;;;;;7.6;6.2;;;;;;;5.9;89.86523;947.2969;;;;
2021/11/18 01:58:26;;;;;;;7.1;6.3;;;;;;;5.92;90.18555;947.3348;;;;
2021/11/18 02:00:55;;;;;;;7.4;6.2;;;;;;;5.98;89.56348;947.2938;;;;
2021/11/18 02:03:20;;;;;;;7.4;6.2;;;;;;;5.93;90.34473;947.2997;;;;
2021/11/18 02:05:48;;;;;;;7.6;6.1;;;;;;;5.95;90.47363;947.2997;;;;
2021/11/18 02:08:14;;;;;;;7.6;6.2;;;;;;;6;90.33789;947.3144;;;;
2021/11/18 02:10:39;;;;;;;7.5;6.2;;;;;;;6.09;89.72363;947.3293;;;;
2021/11/18 02:13:04;;;;;;;7.2;6.1;;;;;;;6.08;89.29297;947.3038;;;;
2021/11/18 02:15:30;;;;;;;7.2;6.1;;;;;;;6.08;89.24609;947.3376;;;;
2021/11/18 02:17:55;;;;;;;7.9;6.2;;;;;;;6.05;89.08203;947.2899;;;;
2021/11/18 02:20:22;;;;;;;7.5;6.2;;;;;;;6.05;89.18359;947.4076;;;;
2021/11/18 02:22:51;;;;;;;7.4;6.3;;;;;;;6.04;89.37402;947.3936;;;;
2021/11/18 02:25:21;;;;;;;7.8;6.1;;;;;;;5.99;89.85059;947.3867;;;;
2021/11/18 02:27:49;;;;;;;8.1;6.2;;;;;;;5.96;90.21582;947.4677;;;;
2021/11/18 02:30:14;;;;;;;9.6;7.1;;;;;;;5.95;90.69922;947.4016;;;;
2021/11/18 02:32:43;;;;;;;8.3;6.5;;;;;;;6.02;90.58984;947.4402;;;;
2021/11/18 02:35:08;;;;;;;7.5;6.1;;;;;;;6.03;90.23047;947.4391;;;;
2021/11/18 02:37:37;;;;;;;7.6;6.3;;;;;;;6.11;89.68262;947.5002;;;;
2021/11/18 02:40:02;;;;;;;7;6.1;;;;;;;6.11;89.68262;947.4749;;;;
2021/11/18 02:42:30;;;;;;;7.1;6.3;;;;;;;6.05;90.23438;947.5917;;;;
2021/11/18 02:44:56;;;;;;;8.7;6.8;;;;;;;6.07;90.18359;947.6092;;;;
2021/11/18 02:47:20;;;;;;;7.4;6.4;;;;;;;6.18;89.74316;947.6028;;;;
2021/11/18 02:50:21;;;;;;;8.2;6.4;;;;;;;6.13;89.68652;947.5731;;;;
2021/11/18 02:52:47;;;;;;;7.1;6.2;;;;;;;5.95;90.80078;947.5684;;;;
2021/11/18 02:55:11;;;;;;;7.6;6.2;;;;;;;6.04;90.3457;947.5842;;;;
2021/11/18 02:57:38;;;;;;;6.8;6;;;;;;;6.06;89.33203;947.6674;;;;
2021/11/18 03:00:04;;;;;;;8;5.8;;;;;;;6.05;89.68066;947.6597;;;;
2021/11/18 03:02:29;;;;;;;8.6;5.9;;;;;;;5.94;89.69336;947.6204;;;;
2021/11/18 03:04:55;;;;;;;7.6;6.2;;;;;;;5.82;89.99512;947.5744;;;;
2021/11/18 03:07:21;;;;;;;7.3;5.7;;;;;;;5.84;90.43945;947.554;;;;
2021/11/18 03:09:47;;;;;;;6.7;5.8;;;;;;;5.92;90.24121;947.4967;;;;
2021/11/18 03:12:12;;;;;;;7.4;6.1;;;;;;;5.85;90.26074;947.4423;;;;
2021/11/18 03:14:37;;;;;;;7.7;6.1;;;;;;;5.67;90.68457;947.5267;;;;
2021/11/18 03:17:07;;;;;;;8.7;6.3;;;;;;;5.52;91.73535;947.4545;;;;
2021/11/18 03:19:34;;;;;;;7.2;6.2;;;;;;;5.57;91.69141;947.433;;;;
2021/11/18 03:22:04;;;;;;;8.6;6.3;;;;;;;5.58;91.8623;947.4333;;;;
2021/11/18 03:24:29;;;;;;;7.3;6.5;;;;;;;5.67;91.53125;947.478;;;;
2021/11/18 03:26:56;;;;;;;8.3;6.2;;;;;;;5.74;91.50195;947.4956;;;;
2021/11/18 03:29:21;;;;;;;8.6;7.1;;;;;;;5.89;91.00586;947.4631;;;;
2021/11/18 03:31:48;;;;;;;9.6;6.8;;;;;;;5.94;90.81055;947.4201;;;;
2021/11/18 03:34:14;;;;;;;7.7;6.4;;;;;;;5.99;90.87598;947.4814;;;;
2021/11/18 03:36:39;;;;;;;9.3;6.7;;;;;;;6.07;90.69238;947.4581;;;;
2021/11/18 03:39:07;;;;;;;9;7.1;;;;;;;6.05;90.45117;947.3936;;;;
2021/11/18 03:41:42;;;;;;;8.9;7.2;;;;;;;6.05;90.47168;947.4733;;;;
2021/11/18 03:44:07;;;;;;;10.4;6.8;;;;;;;6.04;90.68457;947.472;;;;
2021/11/18 03:46:33;;;;;;;8.8;7;;;;;;;6.02;90.72754;947.5251;;;;
2021/11/18 03:48:58;;;;;;;8;6.5;;;;;;;5.85;91.29883;947.4476;;;;
2021/11/18 03:51:28;;;;;;;8.9;6.5;;;;;;;5.91;91.29004;947.4537;;;;
2021/11/18 03:54:19;;;;;;;9.3;6.8;;;;;;;5.7;91.92285;947.4934;;;;
2021/11/18 03:56:44;;;;;;;8.8;6.8;;;;;;;5.78;91.79199;947.6041;;;;
2021/11/18 03:59:14;;;;;;;8.2;7;;;;;;;5.88;91.67773;947.6102;;;;
2021/11/18 04:02:41;;;;;;;8.3;6.7;;;;;;;6;91.16309;947.5633;;;;
2021/11/18 04:05:15;;;;;;;7.9;6.8;;;;;;;5.95;91.0498;947.5709;;;;
2021/11/18 04:07:52;;;;;;;9.3;6.8;;;;;;;5.91;91.92285;947.634;;;;
2021/11/18 04:10:23;;;;;;;9.5;6.5;;;;;;;5.97;91.71973;947.5264;;;;
2021/11/18 04:12:48;;;;;;;7.8;6.4;;;;;;;5.94;91.8291;947.6252;;;;
2021/11/18 04:15:14;;;;;;;8.2;6.1;;;;;;;5.89;92.21289;947.6534;;;;
2021/11/18 04:17:39;;;;;;;6.9;5.5;;;;;;;5.92;92.25195;947.6415;;;;
2021/11/18 04:20:14;;;;;;;6.4;5.2;;;;;;;5.82;92.24219;947.6514;;;;
2021/11/18 04:22:44;;;;;;;7.3;5.9;;;;;;;5.78;92.69531;947.6642;;;;
2021/11/18 04:25:10;;;;;;;7.7;6;;;;;;;5.92;92.07129;947.7356;;;;
2021/11/18 04:27:35;;;;;;;8.7;6.6;;;;;;;5.97;91.64063;947.7603;;;;
2021/11/18 04:33:30;;;;;;;8.8;6.9;;;;;;;6;91.66016;947.807;;;;
2021/11/18 04:35:59;;;;;;;11.2;8.5;;;;;;;6.12;91.35742;947.9299;;;;
2021/11/18 04:38:24;;;;;;;9.9;7.3;;;;;;;6.11;91.42285;947.8956;;;;
2021/11/18 04:40:53;;;;;;;9;7.2;;;;;;;6.14;90.83008;947.9583;;;;
2021/11/18 04:43:26;;;;;;;10.7;7.4;;;;;;;6.07;90.91797;947.9508;;;;
2021/11/18 04:45:51;;;;;;;9.2;7;;;;;;;5.89;91.66992;947.908;;;;
2021/11/18 04:48:22;;;;;;;9.2;7.2;;;;;;;5.85;91.9541;947.8848;;;;
2021/11/18 04:50:55;;;;;;;9.7;7.2;;;;;;;5.88;91.66699;947.9651;;;;
2021/11/18 04:53:26;;;;;;;10.3;7.1;;;;;;;5.81;92.08203;947.8943;;;;
2021/11/18 04:55:47;;;;;;;9.1;7.3;;;;;;;5.83;92.05176;947.9458;;;;
2021/11/18 04:58:12;;;;;;;8.9;7.3;;;;;;;5.64;92.98242;947.9836;;;;
2021/11/18 05:00:41;;;;;;;9.9;7.6;;;;;;;5.73;92.7627;947.933;;;;
2021/11/18 05:03:08;;;;;;;10.3;7.5;;;;;;;5.67;93.02148;947.8642;;;;
2021/11/18 05:05:33;;;;;;;8.8;6.9;;;;;;;5.72;92.83008;947.9199;;;;
2021/11/18 05:08:00;;;;;;;5.5;4.3;;;;;;;5.7;92.10156;947.9554;;;;
2021/11/18 05:10:26;;;;;;;3.8;3.4;;;;;;;5.65;91.76465;948.0096;;;;
2021/11/18 05:12:54;;;;;;;3.9;3.1;;;;;;;5.49;92.49707;948.104;;;;
2021/11/18 05:16:05;;;;;;;3.6;3.1;;;;;;;5.37;93.41992;948.1806;;;;
2021/11/18 05:18:30;;;;;;;4.4;3.5;;;;;;;5.48;93.48828;948.2751;;;;
2021/11/18 05:20:55;;;;;;;3.7;3.1;;;;;;;5.5;93.08594;948.3636;;;;
2021/11/18 05:23:21;;;;;;;5.5;3.8;;;;;;;5.55;93.08691;948.4363;;;;
2021/11/18 05:25:46;;;;;;;4;3.1;;;;;;;5.58;92.3584;948.4183;;;;
2021/11/18 05:28:18;;;;;;;5.4;3.4;;;;;;;5.53;92.29297;948.3571;;;;
2021/11/18 05:34:33;;;;;;;4.7;3.1;;;;;;;5.58;91.81934;948.2844;;;;
2021/11/18 05:37:02;;;;;;;3.6;3;;;;;;;5.55;91.35938;948.2949;;;;
2021/11/18 05:39:31;;;;;;;3;2.6;;;;;;;5.49;91.57227;948.3331;;;;
2021/11/18 05:41:57;;;;;;;3.5;2.8;;;;;;;5.35;91.91504;948.4063;;;;
2021/11/18 05:44:24;;;;;;;3.9;2.8;;;;;;;5.43;92.52832;948.5374;;;;
2021/11/18 05:46:49;;;;;;;5.5;3.9;;;;;;;5.52;92.39258;948.5028;;;;
2021/11/18 05:49:15;;;;;;;5.5;4;;;;;;;5.58;91.99805;948.4531;;;;
2021/11/18 05:51:40;;;;;;;5.7;4.5;;;;;;;5.59;92.03516;948.4263;;;;
2021/11/18 05:54:08;;;;;;;6.3;4.8;;;;;;;5.59;91.67383;948.4055;;;;
2021/11/18 05:56:33;;;;;;;6.5;5.5;;;;;;;5.48;91.69629;948.4838;;;;
2021/11/18 05:59:02;;;;;;;7.3;5.9;;;;;;;5.26;92.96777;948.5048;;;;
2021/11/18 06:01:33;;;;;;;8.7;6.4;;;;;;;5.24;93.21191;948.5436;;;;
2021/11/18 06:03:58;;;;;;;8.7;7;;;;;;;5.25;93.1123;948.5977;;;;
2021/11/18 06:12:31;;;;;;;10.9;6.8;;;;;;;4.99;94.06738;948.7285;;;;
2021/11/18 06:15:03;;;;;;;8.9;6.9;;;;;;;4.87;94.74414;948.818;;;;
2021/11/18 06:20:25;;;;;;;8.1;6.1;;;;;;;4.95;94.55566;948.9476;;;;
2021/11/18 06:22:50;;;;;;;9.3;6.8;;;;;;;5.14;94.2041;948.9698;;;;
2021/11/18 06:25:20;;;;;;;8.6;6.6;;;;;;;5.23;93.40137;948.9821;;;;
2021/11/18 06:27:45;;;;;;;8.7;6;;;;;;;5.29;92.77051;949.021;;;;
2021/11/18 06:30:18;;;;;;;8.1;6;;;;;;;5.4;92.20703;949.079;;;;
2021/11/18 06:32:51;;;;;;;7.9;6.1;;;;;;;5.29;92.22852;949.2073;;;;
2021/11/18 06:35:24;;;;;;;8.7;6.7;;;;;;;5.32;92.24609;949.2515;;;;
2021/11/18 06:37:53;;;;;;;7.9;6.2;;;;;;;5.42;91.99609;949.3055;;;;
2021/11/18 06:40:19;;;;;;;7.3;6.1;;;;;;;5.5;91.5625;949.4103;;;;
2021/11/18 06:42:44;;;;;;;7.2;6.2;;;;;;;5.57;91.36328;949.3849;;;;
2021/11/18 06:45:09;;;;;;;7.4;6.4;;;;;;;5.62;90.81055;949.3934;;;;
2021/11/18 06:47:38;;;;;;;10.3;8.9;;;;;;;5.43;90.9834;949.3572;;;;
2021/11/18 06:50:03;;;;;;;11.6;9.5;;;;;;;5.48;91.08691;949.3028;;;;
2021/11/18 06:52:30;;;;;;;10.6;9;;;;;;;5.26;92.03125;949.3293;;;;
2021/11/18 06:54:55;;;;;;;9.6;8;;;;;;;5.16;92.58496;949.4224;;;;
2021/11/18 06:57:22;;;;;;;8.6;7.1;;;;;;;5.3;91.89453;949.5375;;;;
2021/11/18 06:59:47;;;;;;;9.5;6.4;;;;;;;5.32;91.30078;949.5637;;;;
2021/11/18 07:02:15;;;;;;;9.2;6.8;;;;;;;5.28;91.19141;949.5452;;;;
2021/11/18 07:04:41;;;;;;;8.9;6.6;;;;;;;5.32;90.88281;949.4728;;;;
2021/11/18 07:07:09;;;;;;;7.5;6.2;;;;;;;5.51;90.23535;949.5341;;;;
2021/11/18 07:09:43;;;;;;;7.7;6.4;;;;;;;5.57;89.42285;949.5801;;;;
2021/11/18 07:12:13;;;;;;;9.4;7.1;;;;;;;5.64;89.06543;949.5436;;;;
2021/11/18 07:14:45;;;;;;;9.6;7.2;;;;;;;5.6;89.50684;949.5838;;;;
2021/11/18 07:17:16;;;;;;;8.3;7;;;;;;;5.72;89.43164;949.4556;;;;
2021/11/18 07:19:45;;;;;;;8.9;6.8;;;;;;;5.7;89.8125;949.5637;;;;
2021/11/18 07:22:18;;;;;;;9.5;7.4;;;;;;;5.77;89.88184;949.6386;;;;
2021/11/18 07:24:51;;;;;;;9.3;7.2;;;;;;;5.76;90.19629;949.6443;;;;
2021/11/18 07:27:15;;;;;;;11.3;8.4;;;;;;;5.86;89.85742;949.6749;;;;
2021/11/18 07:29:46;;;;;;;11.3;7.9;;;;;;;5.97;89.11035;949.7067;;;;
2021/11/18 07:32:11;;;;;;;9;7.1;;;;;;;6.12;88.39648;949.7018;;;;
2021/11/18 07:34:36;;;;;;;9.8;7.3;;;;;;;6.1;88.39258;949.7772;;;;
2021/11/18 07:37:04;;;;;;;9.8;7.1;;;;;;;6.08;88.55859;949.864;;;;
2021/11/18 07:39:29;;;;;;;9.5;6.9;;;;;;;5.98;88.875;949.8108;;;;
2021/11/18 07:41:54;;;;;;;9.4;6.9;;;;;;;5.97;89.0332;949.8276;;;;
2021/11/18 07:44:24;;;;;;;10.7;7.9;;;;;;;6.02;88.88574;949.8755;;;;
2021/11/18 07:46:49;;;;;;;9.1;7.6;;;;;;;6.17;88.33789;949.916;;;;
2021/11/18 07:49:19;;;;;;;9.2;7.6;;;;;;;6.22;87.89648;949.9242;;;;
2021/11/18 07:51:47;;;;;;;11.1;8.3;;;;;;;6.27;87.86133;949.9072;;;;
2021/11/18 07:54:12;;;;;;;12.2;7.7;;;;;;;6.28;87.1748;949.8643;;;;
2021/11/18 07:56:38;;;;;;;11.1;8.5;;;;;;;6.39;86.87988;949.8606;;;;
2021/11/18 07:59:02;;;;;;;10.6;7.6;;;;;;;6.51;85.84082;949.9063;;;;
2021/11/18 08:01:30;;;;;;;9.7;7.6;;;;;;;6.57;85.19727;949.9154;;;;
2021/11/18 08:03:59;;;;;;;9.7;7.5;;;;;;;6.66;85.16992;949.9138;;;;
2021/11/18 08:06:24;;;;;;;8.4;6.8;;;;;;;6.65;84.58203;949.943;;;;
2021/11/18 08:08:52;;;;;;;9.6;7.4;;;;;;;6.65;84.77246;949.8535;;;;
2021/11/18 08:11:17;;;;;;;8.7;6.9;;;;;;;6.62;84.73145;949.8787;;;;
2021/11/18 08:13:45;;;;;;;13.6;7.8;;;;;;;6.67;85;949.8809;;;;
2021/11/18 08:16:22;;;;;;;8.9;6.6;;;;;;;6.38;85.375;949.7756;;;;
2021/11/18 08:18:47;;;;;;;9.5;6.7;;;;;;;6.37;85.84766;949.7371;;;;
2021/11/18 08:21:16;;;;;;;8.5;6.5;;;;;;;6.23;86.25977;949.7816;;;;
2021/11/18 08:23:41;;;;;;;10;6.4;;;;;;;6.15;87.47656;949.7287;;;;
2021/11/18 08:26:10;;;;;;;9.5;7;;;;;;;6.3;87.4502;949.7551;;;;
2021/11/18 08:28:39;;;;;;;10.7;6.8;;;;;;;6.14;87.69922;949.8412;;;;
2021/11/18 08:31:05;;;;;;;10.7;6.4;;;;;;;6;89.33203;949.8847;;;;
2021/11/18 08:33:32;;;;;;;9.7;7;;;;;;;6.22;88.74414;949.8442;;;;
2021/11/18 08:35:57;;;;;;;8.8;6.2;;;;;;;6.37;88.0625;949.8705;;;;
2021/11/18 08:38:26;;;;;;;7.6;5.8;;;;;;;6.55;86.72266;949.9059;;;;
2021/11/18 08:40:51;;;;;;;11.1;6.6;;;;;;;6.37;86.62793;949.9783;;;;
2021/11/18 08:43:18;;;;;;;8.8;6.5;;;;;;;6.61;86.33789;949.9863;;;;
2021/11/18 08:45:44;;;;;;;6.7;5.5;;;;;;;6.23;86.23926;949.9359;;;;
2021/11/18 08:48:12;;;;;;;8.1;6.1;;;;;;;6.2;87.63281;949.8461;;;;
2021/11/18 08:50:37;;;;;;;7.4;6;;;;;;;6.54;87.1377;949.8603;;;;
2021/11/18 08:53:03;;;;;;;9;6;;;;;;;6.53;85.59766;949.7324;;;;
2021/11/18 08:55:28;;;;;;;8.6;6.2;;;;;;;6.51;85.80664;949.8588;;;;
2021/11/18 08:57:53;;;;;;;7.5;5.6;;;;;;;6.24;86.5459;949.9205;;;;
2021/11/18 09:00:22;;;;;;;7.7;5.8;;;;;;;6.63;86.62402;949.9301;;;;
2021/11/18 09:02:47;;;;;;;11.2;6.3;;;;;;;6.93;84.71582;949.8537;;;;
2021/11/18 09:05:12;;;;;;;7.5;5.6;;;;;;;6.83;83.74414;949.8486;;;;
2021/11/18 09:07:39;;;;;;;8.2;5.7;;;;;;;7.11;83.24219;949.8295;;;;
2021/11/18 09:10:04;;;;;;;8.6;5.5;;;;;;;6.97;83.02344;949.8615;;;;
2021/11/18 09:12:33;;;;;;;9.4;5.7;;;;;;;7.44;82.21875;949.8696;;;;
2021/11/18 09:14:58;;;;;;;7.2;5.7;;;;;;;7.75;80.32813;949.887;;;;
2021/11/18 09:17:27;;;;;;;9.2;5.1;;;;;;;7.86;79.09961;949.7802;;;;
2021/11/18 09:19:56;;;;;;;6.4;5.1;;;;;;;8.01;79.40039;949.7712;;;;
2021/11/18 09:22:22;;;;;;;6.5;4.8;;;;;;;8.48;77.38379;949.7703;;;;
2021/11/18 09:24:47;;;;;;;6;4.9;;;;;;;8.24;77.75;949.7903;;;;
2021/11/18 09:27:19;;;;;;;5.9;4.4;;;;;;;8.55;76.89648;949.7594;;;;
2021/11/18 09:29:49;;;;;;;6.8;4.8;;;;;;;8.51;76.08301;949.7928;;;;
2021/11/18 09:32:17;;;;;;;7.3;4.4;;;;;;;8.89;75.1377;949.7781;;;;
2021/11/18 09:34:42;;;;;;;13.5;5.8;;;;;;;9.19;74.42676;949.8464;;;;
2021/11/18 09:37:09;;;;;;;4.9;4.2;;;;;;;9.43;73.08105;949.8836;;;;
2021/11/18 09:39:35;;;;;;;8.1;4.4;;;;;;;9.62;72.68848;949.873;;;;
2021/11/18 09:42:02;;;;;;;4.7;4.2;;;;;;;9.79;71.5;949.9174;;;;
2021/11/18 09:44:27;;;;;;;5.6;4.2;;;;;;;10.11;70.03516;949.7963;;;;
2021/11/18 09:46:52;;;;;;;5.7;4.4;;;;;;;10.12;69.72949;949.851;;;;
2021/11/18 09:49:18;;;;;;;6.6;4.2;;;;;;;10.12;69.4209;949.7775;;;;
2021/11/18 09:51:49;;;;;;;5.7;4.1;;;;;;;9.5;70.40234;949.9285;;;;
2021/11/18 09:54:14;;;;;;;5.3;4.1;;;;;;;8.87;72.58691;950.0148;;;;
2021/11/18 09:56:40;;;;;;;4.4;3.9;;;;;;;9.01;72.41602;949.9676;;;;
2021/11/18 09:59:30;;;;;;;4.8;3.6;;;;;;;9.3;72.77246;950.0283;;;;
2021/11/18 10:01:55;;;;;;;4;3.2;;;;;;;9.12;71.99023;950.0109;;;;
2021/11/18 10:04:20;;;;;;;5.2;3.7;;;;;;;9.17;73.125;950.0125;;;;
2021/11/18 10:06:48;;;;;;;4;3.1;;;;;;;9.4;70.78613;949.9498;;;;
2021/11/18 10:09:13;;;;;;;5.6;4.5;;;;;;;9.8;70.91797;949.9366;;;;
2021/11/18 10:11:42;;;;;;;5.2;3.4;;;;;;;9.82;71.19629;949.9027;;;;
2021/11/18 10:14:09;;;;;;;3.1;2.8;;;;;;;10.18;68.92676;949.8755;;;;
2021/11/18 10:16:52;;;;;;;3.4;3.1;;;;;;;10.48;68.23438;949.8606;;;;
2021/11/18 10:19:18;;;;;;;3.3;3;;;;;;;10.71;67.29883;949.8281;;;;
2021/11/18 10:21:52;;;;;;;3.3;3;;;;;;;10.88;65.47461;949.7963;;;;
2021/11/18 10:24:17;;;;;;;3.8;3.2;;;;;;;10.7;65.82422;949.843;;;;
2021/11/18 10:26:44;;;;;;;3.4;3;;;;;;;10.85;65.87012;949.8419;;;;
2021/11/18 10:29:10;;;;;;;4.3;3.2;;;;;;;10.91;65.98242;949.8491;;;;
2021/11/18 10:31:35;;;;;;;3.4;3.1;;;;;;;10.88;65.21289;949.829;;;;
2021/11/18 10:34:03;;;;;;;4.2;2.9;;;;;;;10.87;66.0791;949.7819;;;;
2021/11/18 10:36:31;;;;;;;4.1;3.1;;;;;;;11.04;63.63574;949.7689;;;;
2021/11/18 10:39:01;;;;;;;4.5;3.4;;;;;;;11.02;63.61035;949.7662;;;;
2021/11/18 10:41:28;;;;;;;4.5;3.3;;;;;;;11.3;63.94922;949.7615;;;;
2021/11/18 10:43:53;;;;;;;4.1;3.3;;;;;;;11.42;64.30957;949.7417;;;;
2021/11/18 10:46:18;;;;;;;4.7;3.3;;;;;;;11.32;63.34473;949.7853;;;;
2021/11/18 10:48:43;;;;;;;4.9;3.5;;;;;;;11.39;63.05859;949.7949;;;;
2021/11/18 10:51:08;;;;;;;3.9;3.3;;;;;;;11.59;62.03418;949.749;;;;
2021/11/18 10:53:33;;;;;;;5.5;4;;;;;;;11.4;63.81445;949.7825;;;;
2021/11/18 10:55:59;;;;;;;5.5;3.8;;;;;;;11.31;64.03027;949.7466;;;;
2021/11/18 10:58:25;;;;;;;5.5;3.8;;;;;;;10.95;65.73633;949.7511;;;;
2021/11/18 11:00:53;;;;;;;4.3;3.8;;;;;;;11.18;64.29688;949.6985;;;;
2021/11/18 11:03:17;;;;;;;4.6;3.9;;;;;;;11.18;64.41211;949.6714;;;;
2021/11/18 11:05:49;;;;;;;6.4;3.9;;;;;;;11.21;64.63184;949.6752;;;;
2021/11/18 11:08:14;;;;;;;7.9;4.5;;;;;;;11.13;65.85742;949.616;;;;
2021/11/18 11:10:43;;;;;;;4.5;3.9;;;;;;;11.23;64.38281;949.6951;;;;
2021/11/18 11:13:14;;;;;;;5;3.7;;;;;;;11.09;64.58105;949.7048;;;;
2021/11/18 11:15:55;;;;;;;5.7;4;;;;;;;10.91;66.39453;949.7079;;;;
2021/11/18 11:18:20;;;;;;;4.9;3.6;;;;;;;11.06;64.9541;949.7003;;;;
2021/11/18 11:20:46;;;;;;;4.6;3.6;;;;;;;11.02;65.0166;949.6802;;;;
2021/11/18 11:23:13;;;;;;;4.6;3.4;;;;;;;10.97;65.41992;949.6362;;;;
2021/11/18 11:25:39;;;;;;;3.8;3.4;;;;;;;10.98;65.24902;949.6125;;;;
2021/11/18 11:28:05;;;;;;;3.7;3.3;;;;;;;10.65;67.21094;949.5883;;;;
2021/11/18 11:30:30;;;;;;;5;3.5;;;;;;;10.79;65.36914;949.5108;;;;
2021/11/18 11:32:55;;;;;;;5.7;3.1;;;;;;;10.87;64.94727;949.5005;;;;
2021/11/18 11:35:20;;;;;;;4.1;3.1;;;;;;;10.93;65.04883;949.4598;;;;
2021/11/18 11:37:45;;;;;;;3.8;3.4;;;;;;;10.84;65.61719;949.4376;;;;
2021/11/18 11:40:15;;;;;;;3.9;3.3;;;;;;;10.84;65.1377;949.3706;;;;
2021/11/18 11:42:45;;;;;;;5.2;3.5;;;;;;;10.91;65.24023;949.272;;;;
2021/11/18 11:45:10;;;;;;;4.7;3.7;;;;;;;11.03;65.6123;949.3049;;;;
2021/11/18 11:47:35;;;;;;;3.9;3.5;;;;;;;11.04;64.7793;949.2606;;;;
2021/11/18 11:50:03;;;;;;;5.8;3.6;;;;;;;11.23;64.5332;949.2361;;;;
2021/11/18 11:52:32;;;;;;;4.4;3.4;;;;;;;11.25;64.28516;949.113;;;;
2021/11/18 11:54:57;;;;;;;3.4;3.1;;;;;;;11.32;63.40234;949.1719;;;;
2021/11/18 11:57:22;;;;;;;3.8;3.4;;;;;;;11.36;63.75195;949.1739;;;;
2021/11/18 11:59:48;;;;;;;4.3;3.6;;;;;;;11.19;64.20703;949.1735;;;;
2021/11/18 12:02:13;;;;;;;4.5;3.8;;;;;;;11.19;64.51563;949.1415;;;;
2021/11/18 12:04:40;;;;;;;4.5;3.6;;;;;;;11.36;64.49609;949.0032;;;;
2021/11/18 12:07:05;;;;;;;5.1;3.4;;;;;;;11.63;64.27148;949.1153;;;;
2021/11/18 12:09:31;;;;;;;3.7;3.2;;;;;;;12.02;61.96875;949.1183;;;;
2021/11/18 12:11:57;;;;;;;5.7;3.7;;;;;;;12.51;59.99805;949.0833;;;;
2021/11/18 12:14:21;;;;;;;5.2;3.5;;;;;;;13.97;54.91699;949.0256;;;;
2021/11/18 12:16:57;;;;;;;4.3;3.1;;;;;;;14.83;53.81445;948.9592;;;;
2021/11/18 12:19:24;;;;;;;4.5;3;;;;;;;16.28;49.37695;949.0432;;;;
2021/11/18 12:21:50;;;;;;;3.6;3.3;;;;;;;17.17;46.5332;949.0128;;;;
2021/11/18 12:24:15;;;;;;;5.1;3.5;;;;;;;17.51;45.33984;948.9991;;;;
2021/11/18 12:26:40;;;;;;;3.7;3.1;;;;;;;17.87;43.79688;948.9417;;;;
2021/11/18 12:29:05;;;;;;;5.3;3.2;;;;;;;18.56;41.83105;948.8163;;;;
2021/11/18 12:31:35;;;;;;;4.5;3.1;;;;;;;19.8;40.46777;948.782;;;;
2021/11/18 12:34:00;;;;;;;4.1;3;;;;;;;20.37;38.59277;948.785;;;;
2021/11/18 12:36:32;;;;;;;2.7;2.5;;;;;;;20.97;37.61621;948.7834;;;;
2021/11/18 12:38:58;;;;;;;2.9;2.5;;;;;;;21.1;37.11328;948.8022;;;;
2021/11/18 12:41:22;;;;;;;3;2.6;;;;;;;20.3;38.73926;948.7438;;;;
2021/11/18 12:43:47;;;;;;;3.8;2.8;;;;;;;18.82;41.45996;948.7043;;;;
2021/11/18 12:46:12;;;;;;;7.4;4;;;;;;;18.37;45.44043;948.6677;;;;
2021/11/18 12:48:37;;;;;;;5.4;3.4;;;;;;;16.68;46.92188;948.6869;;;;
2021/11/18 12:51:06;;;;;;;4.3;3.4;;;;;;;15.25;50.77344;948.6885;;;;
2021/11/18 12:53:33;;;;;;;7.5;4;;;;;;;15.23;52.08691;948.6025;;;;
2021/11/18 12:56:01;;;;;;;6.5;3.8;;;;;;;15.96;50.37012;948.566;;;;
2021/11/18 12:58:31;;;;;;;4.2;3.5;;;;;;;17.29;46.70801;948.4988;;;;
2021/11/18 13:00:56;;;;;;;5;3.3;;;;;;;18.28;43.7334;948.4543;;;;
2021/11/18 13:03:21;;;;;;;5.8;3.7;;;;;;;18.99;41.90625;948.2902;;;;
2021/11/18 13:05:47;;;;;;;4;3.3;;;;;;;18.81;41.12207;948.1619;;;;
2021/11/18 13:08:12;;;;;;;4.1;3.3;;;;;;;18.94;41.84375;948.1517;;;;
2021/11/18 13:10:40;;;;;;;4.5;3;;;;;;;19.47;40.49609;948.0709;;;;
2021/11/18 13:13:04;;;;;;;2.9;2.3;;;;;;;19.69;37.83398;948.0984;;;;
2021/11/18 13:15:38;;;;;;;3.9;3.1;;;;;;;19.34;39.81934;948.142;;;;
2021/11/18 13:18:07;;;;;;;3;2.4;;;;;;;19.28;40.37402;948.1602;;;;
2021/11/18 13:20:33;;;;;;;2.9;2.6;;;;;;;19.11;40.28809;948.1678;;;;
2021/11/18 13:23:01;;;;;;;3.8;2.8;;;;;;;19.6;39.65625;948.1297;;;;
2021/11/18 13:25:27;;;;;;;3.2;2.5;;;;;;;19.09;40.12305;948.0969;;;;
2021/11/18 13:27:53;;;;;;;2.7;1.7;;;;;;;17.89;42.19727;948.1616;;;;
2021/11/18 13:30:19;;;;;;;1.1;1;;;;;;;16.54;44.11621;948.2766;;;;
2021/11/18 13:32:44;;;;;;;1.3;1.2;;;;;;;15.54;46.68457;948.2768;;;;
2021/11/18 13:35:09;;;;;;;5.2;2.9;;;;;;;14.85;50.58887;948.2971;;;;
2021/11/18 13:37:37;;;;;;;4;2.8;;;;;;;13.85;54.60254;948.3042;;;;
2021/11/18 13:40:02;;;;;;;5.6;3.6;;;;;;;13.08;57.81445;948.2381;;;;
2021/11/18 13:42:27;;;;;;;4.8;3.6;;;;;;;13.15;57.96191;948.2873;;;;
2021/11/18 13:44:54;;;;;;;5.3;4.2;;;;;;;13.45;57.46094;948.3575;;;;
2021/11/18 13:47:18;;;;;;;4.3;3.2;;;;;;;13.11;57.67969;948.3761;;;;
2021/11/18 13:49:46;;;;;;;4.5;3.3;;;;;;;12.47;59.7168;948.2869;;;;
2021/11/18 13:52:17;;;;;;;3.4;2.9;;;;;;;12.5;60.31738;948.3951;;;;
2021/11/18 13:54:42;;;;;;;4.1;3.3;;;;;;;12.37;61.2168;948.4316;;;;
2021/11/18 13:57:11;;;;;;;3.6;2.6;;;;;;;13.33;58.73242;948.3466;;;;
2021/11/18 13:59:36;;;;;;;4.6;2.5;;;;;;;14.15;55.04395;948.1881;;;;
2021/11/18 14:02:02;;;;;;;5.4;3;;;;;;;15.17;52.95605;948.2727;;;;
2021/11/18 14:04:27;;;;;;;5.4;3;;;;;;;15.59;50.84863;948.2766;;;;
2021/11/18 14:06:52;;;;;;;3.2;2.8;;;;;;;16.38;49.95605;948.3032;;;;
2021/11/18 14:09:17;;;;;;;3.4;2.5;;;;;;;16.59;48.04688;948.3097;;;;
2021/11/18 14:11:51;;;;;;;3.2;2.8;;;;;;;16.17;48.65918;948.3688;;;;
2021/11/18 14:14:16;;;;;;;5.8;3.5;;;;;;;15.62;49.68555;948.3895;;;;
2021/11/18 14:16:42;;;;;;;5.7;3.1;;;;;;;14.63;52.75195;948.4461;;;;
2021/11/18 14:19:12;;;;;;;3.8;3.3;;;;;;;14.31;54.14258;948.4875;;;;
2021/11/18 14:21:38;;;;;;;5.7;3.8;;;;;;;13.78;55.77832;948.4984;;;;
2021/11/18 14:24:09;;;;;;;5.2;4.3;;;;;;;13.24;57.65234;948.5316;;;;
2021/11/18 14:26:40;;;;;;;5.6;4.3;;;;;;;12.87;59.63477;948.5637;;;;
2021/11/18 14:29:07;;;;;;;6;4.3;;;;;;;12.66;60.82129;948.5997;;;;
2021/11/18 14:31:38;;;;;;;5.7;4.6;;;;;;;12.43;61.51367;948.593;;;;
2021/11/18 14:34:09;;;;;;;7.2;4.9;;;;;;;12.12;62.74121;948.6813;;;;
2021/11/18 14:36:35;;;;;;;5.9;4.9;;;;;;;11.8;63.69043;948.6022;;;;
2021/11/18 14:39:00;;;;;;;8.1;5.1;;;;;;;11.41;65.17773;948.6071;;;;
2021/11/18 14:41:25;;;;;;;8.6;5.3;;;;;;;10.93;66.87695;948.6103;;;;
2021/11/18 14:43:55;;;;;;;10.2;5.7;;;;;;;10.64;68.00684;948.7006;;;;
2021/11/18 14:46:18;;;;;;;9.2;6.1;;;;;;;10.34;68.38281;948.7153;;;;
2021/11/18 14:48:47;;;;;;;10;5.9;;;;;;;9.41;72.83789;948.7405;;;;
2021/11/18 14:51:16;;;;;;;6.6;5.4;;;;;;;9.27;73.49609;948.7914;;;;